sensor_id;sensor_type;location;lat;lon;timestamp;P1;durP1;ratioP1;P2;durP2;ratioP2
10383;SDS011;5238;43.508;4.980;2022-08-24T00:00:17;5.38;;;3.63;;
10383;SDS011;5238;43.508;4.980;2022-08-24T00:03:07;6.63;;;3.53;;
10383;SDS011;5238;43.508;4.980;2022-08-24T00:05:46;6.35;;;4.32;;
10383;SDS011;5238;43.508;4.980;2022-08-24T00:08:15;4.50;;;4.10;;
10383;SDS011;5238;43.508;4.980;2022-08-24T00:10:45;5.57;;;3.50;;
10383;SDS011;5238;43.508;4.980;2022-08-24T00:13:14;5.88;;;3.35;;
10383;SDS011;5238;43.508;4.980;2022-08-24T00:15:49;5.43;;;2.95;;
10383;SDS011;5238;43.508;4.980;2022-08-24T00:18:23;7.80;;;3.60;;
10383;SDS011;5238;43.508;4.980;2022-08-24T00:21:05;3.85;;;3.25;;
10383;SDS011;5238;43.508;4.980;2022-08-24T00:23:39;4.72;;;3.70;;
10383;SDS011;5238;43.508;4.980;2022-08-24T00:26:09;4.65;;;4.28;;
10383;SDS011;5238;43.508;4.980;2022-08-24T00:28:52;4.57;;;4.28;;
10383;SDS011;5238;43.508;4.980;2022-08-24T00:31:20;3.58;;;3.28;;
10383;SDS011;5238;43.508;4.980;2022-08-24T00:33:47;8.60;;;3.22;;
10383;SDS011;5238;43.508;4.980;2022-08-24T00:36:18;8.05;;;3.47;;
10383;SDS011;5238;43.508;4.980;2022-08-24T00:38:46;4.15;;;3.35;;
10383;SDS011;5238;43.508;4.980;2022-08-24T00:41:16;4.68;;;3.33;;
10383;SDS011;5238;43.508;4.980;2022-08-24T00:43:55;5.05;;;3.17;;
10383;SDS011;5238;43.508;4.980;2022-08-24T00:46:29;6.78;;;3.75;;
10383;SDS011;5238;43.508;4.980;2022-08-24T00:49:17;4.72;;;3.63;;
10383;SDS011;5238;43.508;4.980;2022-08-24T00:51:52;5.15;;;3.35;;
10383;SDS011;5238;43.508;4.980;2022-08-24T00:54:32;5.50;;;3.60;;
10383;SDS011;5238;43.508;4.980;2022-08-24T00:57:08;4.30;;;3.88;;
10383;SDS011;5238;43.508;4.980;2022-08-24T00:59:51;5.15;;;4.00;;
10383;SDS011;5238;43.508;4.980;2022-08-24T01:02:25;4.35;;;3.28;;
10383;SDS011;5238;43.508;4.980;2022-08-24T01:05:05;7.35;;;3.85;;
10383;SDS011;5238;43.508;4.980;2022-08-24T01:07:39;3.08;;;2.78;;
10383;SDS011;5238;43.508;4.980;2022-08-24T01:10:09;5.03;;;3.40;;
10383;SDS011;5238;43.508;4.980;2022-08-24T01:12:45;4.72;;;3.55;;
10383;SDS011;5238;43.508;4.980;2022-08-24T01:15:22;5.45;;;3.80;;
10383;SDS011;5238;43.508;4.980;2022-08-24T01:18:03;4.72;;;3.63;;
10383;SDS011;5238;43.508;4.980;2022-08-24T01:21:02;4.50;;;3.88;;
10383;SDS011;5238;43.508;4.980;2022-08-24T01:23:43;4.43;;;4.00;;
10383;SDS011;5238;43.508;4.980;2022-08-24T01:26:22;3.78;;;3.40;;
10383;SDS011;5238;43.508;4.980;2022-08-24T01:28:58;4.28;;;3.53;;
10383;SDS011;5238;43.508;4.980;2022-08-24T01:31:33;4.88;;;4.47;;
10383;SDS011;5238;43.508;4.980;2022-08-24T01:34:03;6.20;;;4.00;;
10383;SDS011;5238;43.508;4.980;2022-08-24T01:36:36;3.60;;;3.10;;
10383;SDS011;5238;43.508;4.980;2022-08-24T01:39:09;4.18;;;3.20;;
10383;SDS011;5238;43.508;4.980;2022-08-24T01:41:44;4.35;;;3.22;;
10383;SDS011;5238;43.508;4.980;2022-08-24T01:44:13;5.03;;;3.65;;
10383;SDS011;5238;43.508;4.980;2022-08-24T01:46:47;9.63;;;3.65;;
10383;SDS011;5238;43.508;4.980;2022-08-24T01:49:19;4.50;;;3.42;;
10383;SDS011;5238;43.508;4.980;2022-08-24T01:52:01;7.03;;;4.43;;
10383;SDS011;5238;43.508;4.980;2022-08-24T01:54:33;5.40;;;4.97;;
10383;SDS011;5238;43.508;4.980;2022-08-24T01:57:05;3.85;;;3.13;;
10383;SDS011;5238;43.508;4.980;2022-08-24T01:59:33;5.55;;;3.80;;
10383;SDS011;5238;43.508;4.980;2022-08-24T02:02:05;4.35;;;3.13;;
10383;SDS011;5238;43.508;4.980;2022-08-24T02:04:40;5.28;;;3.53;;
10383;SDS011;5238;43.508;4.980;2022-08-24T02:07:18;3.92;;;3.63;;
10383;SDS011;5238;43.508;4.980;2022-08-24T02:09:53;8.23;;;3.60;;
10383;SDS011;5238;43.508;4.980;2022-08-24T02:12:20;9.05;;;3.95;;
10383;SDS011;5238;43.508;4.980;2022-08-24T02:14:48;5.47;;;3.45;;
10383;SDS011;5238;43.508;4.980;2022-08-24T02:17:15;4.78;;;3.35;;
10383;SDS011;5238;43.508;4.980;2022-08-24T02:19:45;4.10;;;3.03;;
10383;SDS011;5238;43.508;4.980;2022-08-24T02:22:13;5.68;;;3.78;;
10383;SDS011;5238;43.508;4.980;2022-08-24T02:24:41;4.95;;;3.25;;
10383;SDS011;5238;43.508;4.980;2022-08-24T02:27:11;4.20;;;3.78;;
10383;SDS011;5238;43.508;4.980;2022-08-24T02:29:46;4.05;;;3.22;;
10383;SDS011;5238;43.508;4.980;2022-08-24T02:32:14;3.58;;;3.28;;
10383;SDS011;5238;43.508;4.980;2022-08-24T02:34:42;4.80;;;3.40;;
10383;SDS011;5238;43.508;4.980;2022-08-24T02:37:09;4.15;;;3.40;;
10383;SDS011;5238;43.508;4.980;2022-08-24T02:40:07;4.55;;;3.83;;
10383;SDS011;5238;43.508;4.980;2022-08-24T02:42:41;4.22;;;3.67;;
10383;SDS011;5238;43.508;4.980;2022-08-24T02:45:09;4.07;;;3.70;;
10383;SDS011;5238;43.508;4.980;2022-08-24T02:47:40;4.70;;;4.30;;
10383;SDS011;5238;43.508;4.980;2022-08-24T02:50:14;4.07;;;3.38;;
10383;SDS011;5238;43.508;4.980;2022-08-24T02:52:45;3.50;;;3.15;;
10383;SDS011;5238;43.508;4.980;2022-08-24T02:55:17;3.35;;;3.03;;
10383;SDS011;5238;43.508;4.980;2022-08-24T02:57:46;4.05;;;3.63;;
10383;SDS011;5238;43.508;4.980;2022-08-24T03:06:05;3.80;;;3.50;;
10383;SDS011;5238;43.508;4.980;2022-08-24T03:08:40;4.20;;;3.80;;
10383;SDS011;5238;43.508;4.980;2022-08-24T03:11:10;4.93;;;4.30;;
10383;SDS011;5238;43.508;4.980;2022-08-24T03:13:40;4.35;;;2.95;;
10383;SDS011;5238;43.508;4.980;2022-08-24T03:18:57;4.72;;;3.67;;
10383;SDS011;5238;43.508;4.980;2022-08-24T03:21:35;4.85;;;3.55;;
10383;SDS011;5238;43.508;4.980;2022-08-24T03:24:10;3.67;;;3.38;;
10383;SDS011;5238;43.508;4.980;2022-08-24T03:26:43;5.38;;;3.65;;
10383;SDS011;5238;43.508;4.980;2022-08-24T03:29:16;6.57;;;4.18;;
10383;SDS011;5238;43.508;4.980;2022-08-24T03:31:44;5.78;;;4.60;;
10383;SDS011;5238;43.508;4.980;2022-08-24T03:34:23;4.70;;;4.15;;
10383;SDS011;5238;43.508;4.980;2022-08-24T03:37:00;4.45;;;3.10;;
10383;SDS011;5238;43.508;4.980;2022-08-24T03:39:31;6.68;;;3.45;;
10383;SDS011;5238;43.508;4.980;2022-08-24T03:41:59;3.95;;;3.58;;
10383;SDS011;5238;43.508;4.980;2022-08-24T03:44:53;4.88;;;4.38;;
10383;SDS011;5238;43.508;4.980;2022-08-24T03:47:21;4.00;;;3.50;;
10383;SDS011;5238;43.508;4.980;2022-08-24T03:50:09;4.85;;;3.55;;
10383;SDS011;5238;43.508;4.980;2022-08-24T03:52:38;3.83;;;3.42;;
10383;SDS011;5238;43.508;4.980;2022-08-24T03:55:13;5.78;;;3.88;;
10383;SDS011;5238;43.508;4.980;2022-08-24T03:57:41;7.43;;;4.05;;
10383;SDS011;5238;43.508;4.980;2022-08-24T04:02:53;4.47;;;4.07;;
10383;SDS011;5238;43.508;4.980;2022-08-24T04:05:21;4.07;;;3.67;;
10383;SDS011;5238;43.508;4.980;2022-08-24T04:08:00;4.18;;;3.50;;
10383;SDS011;5238;43.508;4.980;2022-08-24T04:10:32;5.13;;;3.90;;
10383;SDS011;5238;43.508;4.980;2022-08-24T04:13:00;3.60;;;3.30;;
10383;SDS011;5238;43.508;4.980;2022-08-24T04:15:37;4.45;;;3.67;;
10383;SDS011;5238;43.508;4.980;2022-08-24T04:18:07;4.82;;;4.00;;
10383;SDS011;5238;43.508;4.980;2022-08-24T04:20:37;5.35;;;4.20;;
10383;SDS011;5238;43.508;4.980;2022-08-24T04:23:13;4.88;;;4.30;;
10383;SDS011;5238;43.508;4.980;2022-08-24T04:25:48;4.90;;;4.45;;
10383;SDS011;5238;43.508;4.980;2022-08-24T04:28:18;6.55;;;4.70;;
10383;SDS011;5238;43.508;4.980;2022-08-24T04:31:04;5.65;;;5.15;;
10383;SDS011;5238;43.508;4.980;2022-08-24T04:33:33;4.40;;;3.50;;
10383;SDS011;5238;43.508;4.980;2022-08-24T04:36:05;4.75;;;3.75;;
10383;SDS011;5238;43.508;4.980;2022-08-24T04:38:35;5.90;;;4.00;;
10383;SDS011;5238;43.508;4.980;2022-08-24T04:41:11;5.20;;;4.15;;
10383;SDS011;5238;43.508;4.980;2022-08-24T04:43:39;4.47;;;3.80;;
10383;SDS011;5238;43.508;4.980;2022-08-24T04:46:13;7.18;;;4.95;;
10383;SDS011;5238;43.508;4.980;2022-08-24T04:48:41;4.40;;;3.55;;
10383;SDS011;5238;43.508;4.980;2022-08-24T04:51:11;4.57;;;3.50;;
10383;SDS011;5238;43.508;4.980;2022-08-24T04:53:39;7.13;;;4.30;;
10383;SDS011;5238;43.508;4.980;2022-08-24T04:56:08;4.00;;;3.67;;
10383;SDS011;5238;43.508;4.980;2022-08-24T04:58:36;6.13;;;3.92;;
10383;SDS011;5238;43.508;4.980;2022-08-24T05:01:05;5.38;;;4.88;;
10383;SDS011;5238;43.508;4.980;2022-08-24T05:03:35;3.92;;;3.30;;
10383;SDS011;5238;43.508;4.980;2022-08-24T05:06:02;6.78;;;4.25;;
10383;SDS011;5238;43.508;4.980;2022-08-24T05:08:29;5.10;;;3.50;;
10383;SDS011;5238;43.508;4.980;2022-08-24T05:10:57;7.75;;;4.22;;
10383;SDS011;5238;43.508;4.980;2022-08-24T05:13:25;7.03;;;3.80;;
10383;SDS011;5238;43.508;4.980;2022-08-24T05:15:52;6.68;;;3.65;;
10383;SDS011;5238;43.508;4.980;2022-08-24T05:18:19;4.30;;;3.78;;
10383;SDS011;5238;43.508;4.980;2022-08-24T05:20:47;5.43;;;3.75;;
10383;SDS011;5238;43.508;4.980;2022-08-24T05:23:14;6.60;;;5.10;;
10383;SDS011;5238;43.508;4.980;2022-08-24T05:25:43;3.85;;;3.53;;
10383;SDS011;5238;43.508;4.980;2022-08-24T05:28:10;3.90;;;3.53;;
10383;SDS011;5238;43.508;4.980;2022-08-24T05:30:37;4.25;;;3.60;;
10383;SDS011;5238;43.508;4.980;2022-08-24T05:33:04;4.05;;;3.53;;
10383;SDS011;5238;43.508;4.980;2022-08-24T05:35:35;7.03;;;4.75;;
10383;SDS011;5238;43.508;4.980;2022-08-24T05:38:04;5.38;;;3.38;;
10383;SDS011;5238;43.508;4.980;2022-08-24T05:40:31;3.25;;;3.00;;
10383;SDS011;5238;43.508;4.980;2022-08-24T05:42:58;7.55;;;3.78;;
10383;SDS011;5238;43.508;4.980;2022-08-24T05:45:25;5.22;;;3.83;;
10383;SDS011;5238;43.508;4.980;2022-08-24T05:47:52;5.80;;;3.90;;
10383;SDS011;5238;43.508;4.980;2022-08-24T05:50:20;4.55;;;4.13;;
10383;SDS011;5238;43.508;4.980;2022-08-24T05:52:46;5.72;;;3.17;;
10383;SDS011;5238;43.508;4.980;2022-08-24T05:55:15;3.65;;;3.30;;
10383;SDS011;5238;43.508;4.980;2022-08-24T05:57:44;3.50;;;3.20;;
10383;SDS011;5238;43.508;4.980;2022-08-24T06:00:11;5.93;;;4.18;;
10383;SDS011;5238;43.508;4.980;2022-08-24T06:02:39;5.38;;;3.65;;
10383;SDS011;5238;43.508;4.980;2022-08-24T06:05:06;6.35;;;3.58;;
10383;SDS011;5238;43.508;4.980;2022-08-24T06:07:34;4.07;;;3.15;;
10383;SDS011;5238;43.508;4.980;2022-08-24T06:10:01;7.75;;;3.97;;
10383;SDS011;5238;43.508;4.980;2022-08-24T06:12:30;5.90;;;4.65;;
10383;SDS011;5238;43.508;4.980;2022-08-24T06:14:57;5.05;;;3.20;;
10383;SDS011;5238;43.508;4.980;2022-08-24T06:17:25;4.20;;;3.75;;
10383;SDS011;5238;43.508;4.980;2022-08-24T06:19:52;5.45;;;3.70;;
10383;SDS011;5238;43.508;4.980;2022-08-24T06:22:19;6.10;;;4.00;;
10383;SDS011;5238;43.508;4.980;2022-08-24T06:24:46;7.25;;;4.45;;
10383;SDS011;5238;43.508;4.980;2022-08-24T06:27:32;6.35;;;4.55;;
10383;SDS011;5238;43.508;4.980;2022-08-24T06:30:00;3.88;;;3.53;;
10383;SDS011;5238;43.508;4.980;2022-08-24T06:32:30;5.63;;;3.78;;
10383;SDS011;5238;43.508;4.980;2022-08-24T06:34:57;5.43;;;3.85;;
10383;SDS011;5238;43.508;4.980;2022-08-24T06:37:24;5.05;;;3.20;;
10383;SDS011;5238;43.508;4.980;2022-08-24T06:39:51;5.47;;;3.70;;
10383;SDS011;5238;43.508;4.980;2022-08-24T06:42:18;4.57;;;2.97;;
10383;SDS011;5238;43.508;4.980;2022-08-24T06:44:47;4.35;;;3.33;;
10383;SDS011;5238;43.508;4.980;2022-08-24T06:47:14;3.85;;;3.20;;
10383;SDS011;5238;43.508;4.980;2022-08-24T06:49:44;3.72;;;3.20;;
10383;SDS011;5238;43.508;4.980;2022-08-24T06:52:12;8.52;;;3.30;;
10383;SDS011;5238;43.508;4.980;2022-08-24T06:54:39;5.75;;;4.05;;
10383;SDS011;5238;43.508;4.980;2022-08-24T06:57:08;5.05;;;3.85;;
10383;SDS011;5238;43.508;4.980;2022-08-24T06:59:35;4.10;;;3.00;;
10383;SDS011;5238;43.508;4.980;2022-08-24T07:02:04;3.38;;;2.92;;
10383;SDS011;5238;43.508;4.980;2022-08-24T07:04:32;5.25;;;3.58;;
10383;SDS011;5238;43.508;4.980;2022-08-24T07:06:59;6.95;;;3.95;;
10383;SDS011;5238;43.508;4.980;2022-08-24T07:09:29;3.58;;;3.28;;
10383;SDS011;5238;43.508;4.980;2022-08-24T07:11:57;3.72;;;3.22;;
10383;SDS011;5238;43.508;4.980;2022-08-24T07:14:24;3.92;;;2.97;;
10383;SDS011;5238;43.508;4.980;2022-08-24T07:16:51;4.43;;;3.03;;
10383;SDS011;5238;43.508;4.980;2022-08-24T07:19:22;3.83;;;3.50;;
10383;SDS011;5238;43.508;4.980;2022-08-24T07:21:49;4.00;;;2.88;;
10383;SDS011;5238;43.508;4.980;2022-08-24T07:24:20;3.35;;;3.05;;
10383;SDS011;5238;43.508;4.980;2022-08-24T07:26:47;3.30;;;2.97;;
10383;SDS011;5238;43.508;4.980;2022-08-24T07:29:18;3.22;;;2.95;;
10383;SDS011;5238;43.508;4.980;2022-08-24T07:31:45;3.08;;;2.72;;
10383;SDS011;5238;43.508;4.980;2022-08-24T07:34:13;3.90;;;3.45;;
10383;SDS011;5238;43.508;4.980;2022-08-24T07:36:52;2.65;;;2.45;;
10383;SDS011;5238;43.508;4.980;2022-08-24T07:39:19;8.15;;;2.70;;
10383;SDS011;5238;43.508;4.980;2022-08-24T07:44:28;4.65;;;3.03;;
10383;SDS011;5238;43.508;4.980;2022-08-24T07:46:56;5.28;;;3.58;;
10383;SDS011;5238;43.508;4.980;2022-08-24T07:49:23;3.40;;;3.10;;
10383;SDS011;5238;43.508;4.980;2022-08-24T07:51:51;4.00;;;3.58;;
10383;SDS011;5238;43.508;4.980;2022-08-24T07:54:19;4.70;;;3.70;;
10383;SDS011;5238;43.508;4.980;2022-08-24T07:56:49;3.28;;;2.65;;
10383;SDS011;5238;43.508;4.980;2022-08-24T07:59:16;6.35;;;3.05;;
10383;SDS011;5238;43.508;4.980;2022-08-24T08:01:43;3.42;;;3.05;;
10383;SDS011;5238;43.508;4.980;2022-08-24T08:04:10;5.15;;;3.47;;
10383;SDS011;5238;43.508;4.980;2022-08-24T08:06:39;5.78;;;3.83;;
10383;SDS011;5238;43.508;4.980;2022-08-24T08:09:11;3.90;;;3.42;;
10383;SDS011;5238;43.508;4.980;2022-08-24T08:11:40;4.38;;;2.70;;
10383;SDS011;5238;43.508;4.980;2022-08-24T08:14:09;4.57;;;2.97;;
10383;SDS011;5238;43.508;4.980;2022-08-24T08:16:38;3.42;;;3.13;;
10383;SDS011;5238;43.508;4.980;2022-08-24T08:19:06;3.50;;;3.20;;
10383;SDS011;5238;43.508;4.980;2022-08-24T08:21:33;2.97;;;2.53;;
10383;SDS011;5238;43.508;4.980;2022-08-24T08:24:19;4.80;;;3.40;;
10383;SDS011;5238;43.508;4.980;2022-08-24T08:26:47;3.15;;;2.95;;
10383;SDS011;5238;43.508;4.980;2022-08-24T08:29:15;4.25;;;3.17;;
10383;SDS011;5238;43.508;4.980;2022-08-24T08:31:46;4.20;;;2.78;;
10383;SDS011;5238;43.508;4.980;2022-08-24T08:34:13;3.53;;;3.17;;
10383;SDS011;5238;43.508;4.980;2022-08-24T08:36:41;3.35;;;3.05;;
10383;SDS011;5238;43.508;4.980;2022-08-24T08:39:09;3.00;;;2.78;;
10383;SDS011;5238;43.508;4.980;2022-08-24T08:56:43;4.63;;;2.97;;
10383;SDS011;5238;43.508;4.980;2022-08-24T08:59:20;3.35;;;3.05;;
10383;SDS011;5238;43.508;4.980;2022-08-24T09:02:09;6.30;;;3.20;;
10383;SDS011;5238;43.508;4.980;2022-08-24T09:08:03;3.67;;;3.13;;
10383;SDS011;5238;43.508;4.980;2022-08-24T09:10:47;5.32;;;3.83;;
10383;SDS011;5238;43.508;4.980;2022-08-24T09:13:30;4.90;;;2.80;;
10383;SDS011;5238;43.508;4.980;2022-08-24T09:16:15;3.40;;;2.90;;
10383;SDS011;5238;43.508;4.980;2022-08-24T09:18:57;3.30;;;3.00;;
10383;SDS011;5238;43.508;4.980;2022-08-24T09:21:43;3.42;;;3.13;;
10383;SDS011;5238;43.508;4.980;2022-08-24T09:24:24;4.18;;;3.00;;
10383;SDS011;5238;43.508;4.980;2022-08-24T09:27:09;4.03;;;3.05;;
10383;SDS011;5238;43.508;4.980;2022-08-24T09:29:54;3.28;;;3.00;;
10383;SDS011;5238;43.508;4.980;2022-08-24T09:32:34;5.50;;;3.03;;
10383;SDS011;5238;43.508;4.980;2022-08-24T09:35:30;4.38;;;3.50;;
10383;SDS011;5238;43.508;4.980;2022-08-24T09:38:03;3.60;;;3.20;;
10383;SDS011;5238;43.508;4.980;2022-08-24T09:40:42;4.85;;;3.17;;
10383;SDS011;5238;43.508;4.980;2022-08-24T09:43:35;4.75;;;2.70;;
10383;SDS011;5238;43.508;4.980;2022-08-24T09:49:56;3.60;;;2.40;;
10383;SDS011;5238;43.508;4.980;2022-08-24T09:53:01;4.25;;;2.67;;
10383;SDS011;5238;43.508;4.980;2022-08-24T09:58:49;3.70;;;2.67;;
10383;SDS011;5238;43.508;4.980;2022-08-24T10:01:31;3.72;;;2.63;;
10383;SDS011;5238;43.508;4.980;2022-08-24T10:04:14;3.30;;;2.58;;
10383;SDS011;5238;43.508;4.980;2022-08-24T10:06:58;4.22;;;2.90;;
10383;SDS011;5238;43.508;4.980;2022-08-24T10:09:38;4.75;;;2.97;;
10383;SDS011;5238;43.508;4.980;2022-08-24T10:12:33;4.75;;;2.90;;
10383;SDS011;5238;43.508;4.980;2022-08-24T10:15:15;5.00;;;2.50;;
10383;SDS011;5238;43.508;4.980;2022-08-24T10:17:51;4.80;;;2.53;;
10383;SDS011;5238;43.508;4.980;2022-08-24T10:20:37;6.20;;;2.80;;
10383;SDS011;5238;43.508;4.980;2022-08-24T10:23:23;3.05;;;2.80;;
10383;SDS011;5238;43.508;4.980;2022-08-24T10:26:06;3.30;;;3.00;;
10383;SDS011;5238;43.508;4.980;2022-08-24T10:28:53;3.55;;;2.50;;
10383;SDS011;5238;43.508;4.980;2022-08-24T10:31:33;3.67;;;2.50;;
10383;SDS011;5238;43.508;4.980;2022-08-24T10:34:31;4.78;;;2.75;;
10383;SDS011;5238;43.508;4.980;2022-08-24T10:40:15;3.10;;;2.90;;
10383;SDS011;5238;43.508;4.980;2022-08-24T10:43:09;3.65;;;2.55;;
10383;SDS011;5238;43.508;4.980;2022-08-24T10:46:24;4.40;;;4.00;;
10383;SDS011;5238;43.508;4.980;2022-08-24T10:52:24;6.07;;;3.00;;
10383;SDS011;5238;43.508;4.980;2022-08-24T10:55:22;6.18;;;3.40;;
10383;SDS011;5238;43.508;4.980;2022-08-24T10:58:05;5.13;;;3.30;;
10383;SDS011;5238;43.508;4.980;2022-08-24T11:00:54;4.18;;;3.83;;
10383;SDS011;5238;43.508;4.980;2022-08-24T11:03:26;3.80;;;3.15;;
10383;SDS011;5238;43.508;4.980;2022-08-24T11:05:53;3.80;;;2.70;;
10383;SDS011;5238;43.508;4.980;2022-08-24T11:08:22;3.95;;;3.05;;
10383;SDS011;5238;43.508;4.980;2022-08-24T11:11:06;3.28;;;2.92;;
10383;SDS011;5238;43.508;4.980;2022-08-24T11:13:52;3.40;;;3.10;;
10383;SDS011;5238;43.508;4.980;2022-08-24T11:16:28;5.13;;;2.75;;
10383;SDS011;5238;43.508;4.980;2022-08-24T11:19:07;3.33;;;2.90;;
10383;SDS011;5238;43.508;4.980;2022-08-24T11:21:42;3.30;;;2.60;;
10383;SDS011;5238;43.508;4.980;2022-08-24T11:24:24;3.95;;;3.15;;
10383;SDS011;5238;43.508;4.980;2022-08-24T11:26:57;7.13;;;2.97;;
10383;SDS011;5238;43.508;4.980;2022-08-24T11:32:33;4.15;;;2.22;;
10383;SDS011;5238;43.508;4.980;2022-08-24T11:35:22;5.10;;;2.42;;
10383;SDS011;5238;43.508;4.980;2022-08-24T11:38:08;3.22;;;2.50;;
10383;SDS011;5238;43.508;4.980;2022-08-24T11:41:05;5.38;;;3.22;;
10383;SDS011;5238;43.508;4.980;2022-08-24T11:43:55;2.90;;;2.13;;
10383;SDS011;5238;43.508;4.980;2022-08-24T11:46:41;4.65;;;4.35;;
10383;SDS011;5238;43.508;4.980;2022-08-24T11:49:13;3.28;;;2.88;;
10383;SDS011;5238;43.508;4.980;2022-08-24T11:52:06;3.35;;;2.35;;
10383;SDS011;5238;43.508;4.980;2022-08-24T11:54:41;2.95;;;2.75;;
10383;SDS011;5238;43.508;4.980;2022-08-24T11:57:14;3.60;;;2.30;;
10383;SDS011;5238;43.508;4.980;2022-08-24T11:59:54;4.28;;;2.38;;
10383;SDS011;5238;43.508;4.980;2022-08-24T12:02:35;2.95;;;2.30;;
10383;SDS011;5238;43.508;4.980;2022-08-24T12:08:13;4.78;;;2.30;;
10383;SDS011;5238;43.508;4.980;2022-08-24T12:10:50;3.45;;;2.40;;
10383;SDS011;5238;43.508;4.980;2022-08-24T12:13:28;4.85;;;2.40;;
10383;SDS011;5238;43.508;4.980;2022-08-24T12:16:25;3.60;;;3.30;;
10383;SDS011;5238;43.508;4.980;2022-08-24T12:19:05;3.35;;;3.10;;
10383;SDS011;5238;43.508;4.980;2022-08-24T12:21:44;2.65;;;2.42;;
10383;SDS011;5238;43.508;4.980;2022-08-24T12:24:24;4.85;;;2.42;;
10383;SDS011;5238;43.508;4.980;2022-08-24T12:27:00;3.65;;;2.47;;
10383;SDS011;5238;43.508;4.980;2022-08-24T12:29:34;2.78;;;2.30;;
10383;SDS011;5238;43.508;4.980;2022-08-24T12:32:07;4.00;;;2.78;;
10383;SDS011;5238;43.508;4.980;2022-08-24T12:34:44;2.97;;;2.67;;
10383;SDS011;5238;43.508;4.980;2022-08-24T12:37:21;3.25;;;2.08;;
10383;SDS011;5238;43.508;4.980;2022-08-24T12:39:56;5.95;;;2.20;;
10383;SDS011;5238;43.508;4.980;2022-08-24T12:42:41;4.00;;;2.00;;
10383;SDS011;5238;43.508;4.980;2022-08-24T12:45:16;2.85;;;2.08;;
10383;SDS011;5238;43.508;4.980;2022-08-24T12:47:46;2.78;;;2.30;;
10383;SDS011;5238;43.508;4.980;2022-08-24T12:50:21;4.47;;;2.25;;
10383;SDS011;5238;43.508;4.980;2022-08-24T12:56:06;2.20;;;2.00;;
10383;SDS011;5238;43.508;4.980;2022-08-24T12:58:58;2.03;;;1.88;;
10383;SDS011;5238;43.508;4.980;2022-08-24T13:01:29;2.65;;;2.00;;
10383;SDS011;5238;43.508;4.980;2022-08-24T13:04:09;4.90;;;2.53;;
10383;SDS011;5238;43.508;4.980;2022-08-24T13:06:43;3.17;;;2.35;;
10383;SDS011;5238;43.508;4.980;2022-08-24T13:09:16;4.70;;;2.20;;
10383;SDS011;5238;43.508;4.980;2022-08-24T13:11:54;3.67;;;2.28;;
10383;SDS011;5238;43.508;4.980;2022-08-24T13:14:22;3.25;;;2.50;;
10383;SDS011;5238;43.508;4.980;2022-08-24T13:17:08;3.13;;;2.65;;
10383;SDS011;5238;43.508;4.980;2022-08-24T13:19:39;2.83;;;2.20;;
10383;SDS011;5238;43.508;4.980;2022-08-24T13:25:17;4.60;;;2.50;;
10383;SDS011;5238;43.508;4.980;2022-08-24T13:28:04;2.75;;;2.08;;
10383;SDS011;5238;43.508;4.980;2022-08-24T13:33:36;4.00;;;2.30;;
10383;SDS011;5238;43.508;4.980;2022-08-24T13:36:08;2.88;;;2.30;;
10383;SDS011;5238;43.508;4.980;2022-08-24T13:39:19;2.70;;;2.50;;
10383;SDS011;5238;43.508;4.980;2022-08-24T13:42:03;2.97;;;2.78;;
10383;SDS011;5238;43.508;4.980;2022-08-24T13:44:55;3.58;;;2.17;;
10383;SDS011;5238;43.508;4.980;2022-08-24T13:47:50;3.67;;;3.38;;
10383;SDS011;5238;43.508;4.980;2022-08-24T13:50:35;4.10;;;3.35;;
10383;SDS011;5238;43.508;4.980;2022-08-24T13:53:13;3.55;;;2.95;;
10383;SDS011;5238;43.508;4.980;2022-08-24T13:56:17;3.75;;;3.15;;
10383;SDS011;5238;43.508;4.980;2022-08-24T13:58:54;3.70;;;3.35;;
10383;SDS011;5238;43.508;4.980;2022-08-24T14:01:32;2.88;;;1.98;;
10383;SDS011;5238;43.508;4.980;2022-08-24T14:07:01;5.82;;;2.75;;
10383;SDS011;5238;43.508;4.980;2022-08-24T14:09:38;3.35;;;2.67;;
10383;SDS011;5238;43.508;4.980;2022-08-24T14:12:25;3.20;;;2.90;;
10383;SDS011;5238;43.508;4.980;2022-08-24T14:15:20;2.95;;;2.65;;
10383;SDS011;5238;43.508;4.980;2022-08-24T14:17:52;4.15;;;2.25;;
10383;SDS011;5238;43.508;4.980;2022-08-24T14:23:46;2.20;;;2.00;;
10383;SDS011;5238;43.508;4.980;2022-08-24T14:29:28;2.40;;;2.20;;
10383;SDS011;5238;43.508;4.980;2022-08-24T14:35:32;3.17;;;2.58;;
10383;SDS011;5238;43.508;4.980;2022-08-24T14:38:19;3.35;;;2.20;;
10383;SDS011;5238;43.508;4.980;2022-08-24T14:41:20;3.95;;;3.65;;
10383;SDS011;5238;43.508;4.980;2022-08-24T14:44:01;5.32;;;3.42;;
10383;SDS011;5238;43.508;4.980;2022-08-24T14:46:45;3.78;;;2.67;;
10383;SDS011;5238;43.508;4.980;2022-08-24T14:49:28;3.33;;;3.10;;
10383;SDS011;5238;43.508;4.980;2022-08-24T14:52:23;3.25;;;2.55;;
10383;SDS011;5238;43.508;4.980;2022-08-24T14:55:11;3.50;;;3.20;;
10383;SDS011;5238;43.508;4.980;2022-08-24T14:57:50;3.10;;;2.83;;
10383;SDS011;5238;43.508;4.980;2022-08-24T15:00:43;8.05;;;3.30;;
10383;SDS011;5238;43.508;4.980;2022-08-24T15:07:50;4.85;;;2.33;;
10383;SDS011;5238;43.508;4.980;2022-08-24T15:10:57;3.97;;;2.13;;
10383;SDS011;5238;43.508;4.980;2022-08-24T15:13:53;2.10;;;1.95;;
10383;SDS011;5238;43.508;4.980;2022-08-24T15:16:44;3.75;;;2.22;;
10383;SDS011;5238;43.508;4.980;2022-08-24T15:19:39;2.95;;;2.75;;
10383;SDS011;5238;43.508;4.980;2022-08-24T15:22:37;3.83;;;3.33;;
10383;SDS011;5238;43.508;4.980;2022-08-24T15:25:17;2.95;;;2.75;;
10383;SDS011;5238;43.508;4.980;2022-08-24T15:27:56;2.97;;;2.33;;
10383;SDS011;5238;43.508;4.980;2022-08-24T15:30:32;4.00;;;2.55;;
10383;SDS011;5238;43.508;4.980;2022-08-24T15:34:12;2.45;;;2.25;;
10383;SDS011;5238;43.508;4.980;2022-08-24T15:36:24;3.35;;;2.97;;
10383;SDS011;5238;43.508;4.980;2022-08-24T15:39:08;3.42;;;2.60;;
10383;SDS011;5238;43.508;4.980;2022-08-24T15:41:54;4.93;;;2.45;;
10383;SDS011;5238;43.508;4.980;2022-08-24T15:44:25;4.88;;;2.63;;
10383;SDS011;5238;43.508;4.980;2022-08-24T15:46:59;2.65;;;1.83;;
10383;SDS011;5238;43.508;4.980;2022-08-24T15:49:29;3.72;;;2.15;;
10383;SDS011;5238;43.508;4.980;2022-08-24T15:52:03;4.25;;;2.65;;
10383;SDS011;5238;43.508;4.980;2022-08-24T15:54:54;3.50;;;2.20;;
10383;SDS011;5238;43.508;4.980;2022-08-24T15:57:25;2.45;;;2.10;;
10383;SDS011;5238;43.508;4.980;2022-08-24T16:00:06;2.63;;;2.42;;
10383;SDS011;5238;43.508;4.980;2022-08-24T16:02:40;3.90;;;3.03;;
10383;SDS011;5238;43.508;4.980;2022-08-24T16:08:06;5.18;;;3.30;;
10383;SDS011;5238;43.508;4.980;2022-08-24T16:10:49;2.67;;;2.00;;
10383;SDS011;5238;43.508;4.980;2022-08-24T16:13:37;3.10;;;2.20;;
10383;SDS011;5238;43.508;4.980;2022-08-24T16:16:18;2.80;;;2.15;;
10383;SDS011;5238;43.508;4.980;2022-08-24T16:19:04;6.18;;;2.17;;
10383;SDS011;5238;43.508;4.980;2022-08-24T16:21:50;2.50;;;1.75;;
10383;SDS011;5238;43.508;4.980;2022-08-24T16:24:44;3.45;;;2.33;;
10383;SDS011;5238;43.508;4.980;2022-08-24T16:28:09;3.33;;;2.08;;
10383;SDS011;5238;43.508;4.980;2022-08-24T16:31:12;3.15;;;2.15;;
10383;SDS011;5238;43.508;4.980;2022-08-24T16:34:26;4.38;;;2.22;;
10383;SDS011;5238;43.508;4.980;2022-08-24T16:36:56;3.15;;;2.83;;
10383;SDS011;5238;43.508;4.980;2022-08-24T16:39:26;4.80;;;4.20;;
10383;SDS011;5238;43.508;4.980;2022-08-24T16:41:53;2.55;;;1.80;;
10383;SDS011;5238;43.508;4.980;2022-08-24T16:44:34;2.83;;;2.30;;
10383;SDS011;5238;43.508;4.980;2022-08-24T16:47:41;5.15;;;2.42;;
10383;SDS011;5238;43.508;4.980;2022-08-24T16:50:14;5.28;;;3.45;;
10383;SDS011;5238;43.508;4.980;2022-08-24T16:52:50;5.63;;;2.75;;
10383;SDS011;5238;43.508;4.980;2022-08-24T16:55:25;4.80;;;2.38;;
10383;SDS011;5238;43.508;4.980;2022-08-24T16:58:32;5.03;;;2.70;;
10383;SDS011;5238;43.508;4.980;2022-08-24T17:00:48;2.92;;;2.22;;
10383;SDS011;5238;43.508;4.980;2022-08-24T17:03:17;3.40;;;2.65;;
10383;SDS011;5238;43.508;4.980;2022-08-24T17:05:44;3.28;;;2.95;;
10383;SDS011;5238;43.508;4.980;2022-08-24T17:08:11;3.67;;;3.33;;
10383;SDS011;5238;43.508;4.980;2022-08-24T17:10:48;3.17;;;2.78;;
10383;SDS011;5238;43.508;4.980;2022-08-24T17:13:26;2.80;;;2.60;;
10383;SDS011;5238;43.508;4.980;2022-08-24T17:18:49;4.10;;;2.47;;